Opelika, AL

12:59 PM CDT on July 28, 2016 (GMT -0500)
Opelika, AL - Highland Ave. | | Change Station

Elev 856 ft 32.67 °N, 85.37 °W | Updated 12 seconds ago

Scattered Clouds
Scattered Clouds
87.1 °F
Feels Like 88 °F
N
3.6
Wind Variable Wind from SW
Gusts 4.9 mph

Today
High -- | Low -- °F
--% Chance of Precip.
Yesterday
High -- | Low -- °F
Precip. -- in
Pressure 30.08 in
Visibility 10.0 miles
Clouds Few 4200 ft
Scattered Clouds 6000 ft
Heat Index 88 °F
Dew Point 63 °F
Humidity 45%
Rainfall 0.00 in
Snow Depth Not available.
5:53 AM 7:42 PM
Waning Crescent, 30% visible
METAR KAUO 281756Z AUTO 24011KT 200V300 10SM FEW042 SCT060 33/21 A3006 RMK AO2 LTG DSNT NW SLP185 T03280211 10328 20228 58008
Pressure 30.08 in
Visibility 10.0 miles
Clouds Few 4200 ft
Scattered Clouds 6000 ft
Heat Index 88 °F
Dew Point 63 °F
Humidity 45%
Rainfall 0.00 in
Snow Depth Not available.
5:53 AM 7:42 PM
Waning Crescent, 30% visible
METAR KAUO 281756Z AUTO 24011KT 200V300 10SM FEW042 SCT060 33/21 A3006 RMK AO2 LTG DSNT NW SLP185 T03280211 10328 20228 58008

10-Day Weather Forecast

Almanac

Astronomy

Jul. 28, 2016 Rise Set
Actual Time
Civil Twilight
Nautical Twilight
Astronomical Twilight
Moon
Length of Visible Light
Length of Day
Tomorrow will be .
, % of the Moon is Illuminated

Today's Extremes

State Highs State Lows

Community

WunderPhotos

Upload Photos

1,928,163 photos uploaded!

WunderBlog® & News

Nearby

Air Quality

  Air Quality AQ Index Pollutant
Not available.

Snow Depth

Station Depth Elevation

Earthquake Activity

City Distance Mag. Time & Date
Minimum magnitude displayed is 2.5.

Coastal Water Temperatures

Place Temperature

Stations

Nearby Weather Stations

Station Location Temp. Windchill Dew Point Humidity Wind Precip. Elev Updated Type
                   

Watches & Warnings

There are currently no watches in effect.